Tropical Cyclones
[Index]
Main Index Home Page Stock Weather Photos Extreme Storms Discussion Storm News and Storm Chasing Reports Tropical Cyclones / Hurricanes / Typhoons Weather Data and Links Wild Fires / Bushfires Weather Observation Techniques Weather Picture Catalogue Tornado Pictures and Reports Stock Video Footage and DVDs for sale
Season 2008-2009 Tropical Cyclone INNIS Track Map
Season 2008-2009 Summaries (Operational Data): [AU] [SIO] [SPAC] [SH]
<<- Previous TC | 2008-2009 Season | Next TC ->>

click for intensity scale information  Lat/long Grid: Show Hide

 Date Labels: Show Hide

Operational Tropical Cyclone Data : JTWC Advisories | BoM Warnings

Name: INNIS
Number: 0915

14 Feb 2009 21:00 UTC to 24 Feb 2009 00:00 UTC

    date/time    lat    long     hPa   cat  kts
2009-02-14 21   18.0   172.5    1004         30          
2009-02-15 00   18.5   171.4    1004         30          
2009-02-15 06   18.5   171.1    1004         30          
2009-02-15 12   17.9   170.5    1004         30          
2009-02-15 18   17.6   170.0    1003         30          
2009-02-16 00   17.9   169.6    1001         30          
2009-02-16 06   18.4   169.1    1000         30          
2009-02-16 12   19.0   167.9    1000         30          
2009-02-16 18   19.8   165.8    1000         30          
2009-02-17 00   20.4   164.7    1000         30          
2009-02-17 06   21.8   163.9     995    1    35          
2009-02-17 12   22.9   163.7     990    1    40          
2009-02-17 18   24.8   160.5     995    1    35          
2009-02-18 00   26.0   161.0     996    1    35          
2009-02-18 06   29.0   160.0     998    1    35          
2009-02-18 12   31.0   160.0     995    1    35          
2009-02-18 18   33.5   160.6    1004                     
2009-02-19 00   37.4   159.5     999                     
2009-02-19 06   39.1   160.2     997                     
2009-02-19 12   39.9   162.8     996                     
2009-02-19 18   41.9   165.1     992                     
2009-02-20 00   42.4   166.6     989                     
2009-02-20 06   42.5   167.4     990                     
2009-02-20 12   42.6   168.0     989                     
2009-02-20 18   42.6   169.1     990                     
2009-02-21 00   43.7   166.6     991                     
2009-02-21 06   44.8   166.6     992                     
2009-02-21 12   44.7   167.2     994                     
2009-02-21 18   44.9   167.6     994                     
2009-02-22 00   44.9   168.2     997                     
2009-02-22 06   44.9   170.6     997                     
2009-02-22 12   47.1   177.6     998                     
2009-02-22 18   47.4   177.5     999                     
2009-02-23 00   47.7   179.7    1004                     
2009-02-23 06   47.4   179.5    1005                     
2009-02-23 12   46.9   179.2    1008                     
2009-02-23 18   46.7   179.2    1010                     
2009-02-24 00   47.3   179.8    1013                     
Winds are 10-min average.

Tropical cyclone tracks developed by Michael Bath using operational warnings and advisories and Google Maps.


[Australian Severe Weather index] [Copyright Notice] [Email Contacts] [Search This Site] [Privacy Policy]
Document: tropical_cyclone_innis.htm Updated: 28 May 2013